Terminal Aerodrome Forecast
Issued by NWS Rapid City, SD

Home | Current Version | Previous Version | Text Only | Print | Product List | Glossary Off
Versions: 1 2 3 4 5 6 7 8 9 10 11 12 13 14 15 16 17 18 19 20 21 22

000
FTUS43 KUNR 130500
TAFRAP
TAF
KRAP 130520Z 1306/1406 35017G27KT P6SM -RA SCT025 OVC035
     FM130800 36020G30KT 1SM -SN VV008
     FM131200 34022G32KT 3SM -SN OVC011
     FM131600 35025G35KT P6SM SCT025 BKN100
     FM132000 35020G30KT P6SM SCT040 BKN100
     FM140100 35015KT P6SM SCT250=

USA.gov is the U.S. government's official web portal to all federal, state and local government web resources and services.